Hovedside
METAR-TAF:

METAR-TAF

Lufthavner :

Lima, Peru

breddegrad: 12-00S, lengdegrad: 077-07W, høyde over havet: 12 m

Gjeldene værobservasjon

Denne rapporten ble laget for 11 minutter siden, klokken 11:00 UTC
Vind 3 kt fra Sør
Temperatur 19°C
Luftfuktighet 88%
Trykk 1012 hPa
Sikt 10 km eller mer
ingen skyer under 1500 m og ingen bygeskyer

METAR: SPJC 261100Z 18003KT CAVOK 19/17 Q1012 NOSIG RMK PP000

Tid: 06:11 (11:11 UTC)

Varsel

Denne rapporten ble laget for 6 timer og 11 minutter siden, klokken 05:00 UTC
Varsel gyldig fra 26. klokken 06 UTC til 27. klokken 06 UTC
Vind 8 kt fra Sør-sørøst
Sikt 10 km eller mer
ingen skyer under 1500 m og ingen bygeskyer
Fra 26. klokken 0900 UTC
Sikt 10 km eller mer
ingen skyer under 1500 m og ingen bygeskyer
Blir
fra 27. klokken 00 UTC til 27. klokken 02 UTC
Vind 9 kt fra Sør-sørvest

TAF: SPJC 260500Z 2606/2706 16008KT CAVOK TX25/2618Z TN18/2511Z FM260900 22004K CAVOK BECMG 2700/2702 21009KT

Værobservasjoner og værvarsel for over 4000 flyplasser (METAR- og TAF-rapporter).

Tilgjengelige stasjoner er representert av de røde og gule prikkene på kartet.

Hold musepekeren over prikken for å se navnet på stasjonen.

Klikk så for å se værobservasjoner og -varsler.

For å forandre kartet kan du klikke på den grønne knappen med svart kryss for å zoome inn, på den grønne knappen med strek for å zoome ut, eller på de grønne pilene for å se tilstøtende kart.


METAR-TAF: